createdAt,value
2022-08-11T00:01:22.002Z,18.40
2022-08-11T00:04:05.684Z,18.30
2022-08-11T00:06:38.286Z,18.29
2022-08-11T00:09:09.610Z,18.27
2022-08-11T00:11:39.598Z,18.27
2022-08-11T00:14:14.688Z,18.32
2022-08-11T00:16:43.278Z,18.38
2022-08-11T00:19:11.516Z,18.37
2022-08-11T00:22:04.534Z,18.31
2022-08-11T00:24:53.540Z,18.22
2022-08-11T00:27:36.380Z,18.12
2022-08-11T00:30:05.871Z,18.03
2022-08-11T00:32:34.154Z,18.00
2022-08-11T00:35:54.679Z,18.01
2022-08-11T00:37:54.973Z,18.02
2022-08-11T00:40:37.692Z,18.01
2022-08-11T00:43:44.183Z,17.92
2022-08-11T00:46:22.688Z,17.86
2022-08-11T00:49:12.057Z,17.84
2022-08-11T00:51:56.683Z,17.85
2022-08-11T00:54:51.672Z,17.79
2022-08-11T00:57:38.008Z,17.81
2022-08-11T01:00:11.389Z,17.73
2022-08-11T01:03:18.252Z,17.72
2022-08-11T01:06:20.188Z,17.71
2022-08-11T01:09:22.633Z,17.68
2022-08-11T01:12:21.336Z,17.64
2022-08-11T01:15:08.253Z,17.58
2022-08-11T01:17:41.453Z,17.54
2022-08-11T01:20:47.430Z,17.50
2022-08-11T01:23:31.521Z,17.44
2022-08-11T01:26:43.332Z,17.44
2022-08-11T01:29:39.291Z,17.44
2022-08-11T01:32:29.273Z,17.37
2022-08-11T01:35:24.234Z,17.29
2022-08-11T01:38:29.145Z,17.22
2022-08-11T01:41:23.207Z,17.21
2022-08-11T01:44:30.789Z,17.26
2022-08-11T01:47:39.033Z,17.18
2022-08-11T01:50:38.835Z,17.07
2022-08-11T01:53:36.916Z,17.03
2022-08-11T01:56:49.885Z,17.05
2022-08-11T01:59:29.801Z,17.02
2022-08-11T02:01:59.977Z,17.01
2022-08-11T02:05:03.322Z,17.01
2022-08-11T02:07:53.630Z,16.96
2022-08-11T02:11:00.040Z,16.89
2022-08-11T02:13:42.600Z,16.87
2022-08-11T02:16:41.554Z,16.85
2022-08-11T02:19:47.832Z,16.83
2022-08-11T02:23:10.286Z,16.78
2022-08-11T02:25:46.411Z,16.77
2022-08-11T02:28:24.006Z,16.78
2022-08-11T02:32:05.080Z,16.81
2022-08-11T02:34:27.679Z,16.78
2022-08-11T02:37:24.413Z,16.59
2022-08-11T02:40:17.588Z,16.49
2022-08-11T02:42:45.508Z,16.46
2022-08-11T02:45:34.706Z,16.46
2022-08-11T02:48:46.156Z,16.42
2022-08-11T02:51:21.860Z,16.42
2022-08-11T02:54:25.260Z,16.37
2022-08-11T02:57:01.753Z,16.33
2022-08-11T02:59:50.979Z,16.28
2022-08-11T03:02:53.529Z,16.28
2022-08-11T03:05:34.502Z,16.25
2022-08-11T03:08:59.581Z,16.22
2022-08-11T03:12:01.119Z,16.22
2022-08-11T03:15:08.051Z,16.17
2022-08-11T03:18:03.888Z,16.11
2022-08-11T03:20:51.610Z,16.05
2022-08-11T03:23:48.005Z,15.97
2022-08-11T03:26:27.789Z,16.01
2022-08-11T03:29:25.107Z,16.03
2022-08-11T03:32:29.922Z,16.04
2022-08-11T03:35:01.486Z,16.01
2022-08-11T03:37:54.741Z,16.00
2022-08-11T03:40:52.143Z,16.16
2022-08-11T03:43:39.026Z,16.22
2022-08-11T03:46:45.251Z,16.30
2022-08-11T03:49:39.120Z,16.20
2022-08-11T03:52:36.487Z,16.14
2022-08-11T03:55:32.385Z,16.12
2022-08-11T03:58:36.875Z,16.16
2022-08-11T04:01:44.452Z,16.23
2022-08-11T04:04:18.657Z,16.27
2022-08-11T04:07:17.386Z,16.33
2022-08-11T04:09:57.156Z,16.34
2022-08-11T04:12:55.327Z,16.36
2022-08-11T04:15:53.927Z,16.39
2022-08-11T04:18:40.878Z,16.42
2022-08-11T04:21:45.861Z,16.31
2022-08-11T04:24:49.778Z,16.33
2022-08-11T04:27:37.627Z,16.40
2022-08-11T04:30:50.504Z,16.32
2022-08-11T04:33:48.625Z,16.33
2022-08-11T04:37:15.928Z,16.22
2022-08-11T04:39:58.342Z,16.15
2022-08-11T04:43:15.575Z,16.18
2022-08-11T04:45:51.930Z,16.19
2022-08-11T04:49:04.947Z,16.28
2022-08-11T04:52:02.234Z,16.23
2022-08-11T04:55:21.276Z,16.26
2022-08-11T04:58:22.241Z,16.31
2022-08-11T05:01:42.445Z,16.40
2022-08-11T05:04:50.064Z,16.46
2022-08-11T05:07:53.893Z,16.53
2022-08-11T05:10:58.695Z,16.62
2022-08-11T05:13:53.142Z,16.67
2022-08-11T05:16:45.991Z,16.73
2022-08-11T05:19:37.610Z,16.77
2022-08-11T05:22:27.333Z,16.79
2022-08-11T05:26:42.846Z,16.81
2022-08-11T05:28:51.805Z,16.86
2022-08-11T05:31:44.011Z,16.91
2022-08-11T05:34:40.363Z,16.94
2022-08-11T05:37:37.462Z,17.01
2022-08-11T05:40:32.505Z,17.13
2022-08-11T05:43:30.628Z,17.21
2022-08-11T05:46:22.427Z,17.34
2022-08-11T05:49:11.836Z,17.53
2022-08-11T05:52:05.434Z,17.82
2022-08-11T05:55:06.104Z,18.15
2022-08-11T05:57:50.708Z,18.64
2022-08-11T06:00:19.979Z,18.93
2022-08-11T06:03:02.476Z,19.14
2022-08-11T06:05:43.642Z,19.11
2022-08-11T06:08:13.791Z,19.17
2022-08-11T06:10:46.582Z,19.33
2022-08-11T06:13:18.159Z,19.32
2022-08-11T06:15:50.720Z,19.28
2022-08-11T06:18:19.079Z,19.33
2022-08-11T06:20:48.877Z,19.38
2022-08-11T06:23:19.603Z,19.47
2022-08-11T06:25:48.459Z,19.54
2022-08-11T06:28:21.077Z,19.62
2022-08-11T06:30:50.500Z,19.78
2022-08-11T06:33:29.636Z,19.87
2022-08-11T06:36:10.929Z,20.00
2022-08-11T06:39:05.823Z,20.15
2022-08-11T06:41:46.870Z,20.19
2022-08-11T06:44:14.432Z,20.33
2022-08-11T06:46:46.668Z,20.50
2022-08-11T06:49:34.589Z,20.73
2022-08-11T06:52:34.479Z,20.88
2022-08-11T06:55:08.066Z,20.65
2022-08-11T06:57:58.179Z,20.67
2022-08-11T07:00:29.959Z,20.72
2022-08-11T07:03:16.611Z,20.70
2022-08-11T07:06:01.133Z,20.64
2022-08-11T07:09:05.719Z,20.79
2022-08-11T07:12:09.937Z,20.92
2022-08-11T07:15:05.993Z,21.11
2022-08-11T07:17:41.341Z,21.28
2022-08-11T07:20:31.877Z,21.49
2022-08-11T07:23:20.848Z,21.74
2022-08-11T07:26:11.214Z,21.86
2022-08-11T07:28:56.103Z,22.00
2022-08-11T07:31:35.872Z,22.11
2022-08-11T07:34:17.942Z,22.24
2022-08-11T07:37:10.558Z,22.40
2022-08-11T07:39:39.845Z,22.31
2022-08-11T07:42:14.888Z,22.45
2022-08-11T07:45:02.977Z,22.64
2022-08-11T07:47:50.070Z,22.81
2022-08-11T07:50:36.463Z,23.10
2022-08-11T07:53:04.684Z,23.45
2022-08-11T07:55:51.814Z,23.92
2022-08-11T07:58:45.556Z,24.25
2022-08-11T08:01:41.948Z,24.35
2022-08-11T08:04:31.595Z,24.45
2022-08-11T08:07:19.700Z,24.80
2022-08-11T08:10:09.326Z,25.05
2022-08-11T08:13:01.082Z,25.37
2022-08-11T08:15:48.978Z,25.57
2022-08-11T08:18:25.909Z,25.93
2022-08-11T08:20:56.805Z,26.46
2022-08-11T08:23:34.273Z,26.48
2022-08-11T08:26:25.954Z,27.11
2022-08-11T08:28:55.155Z,27.68
2022-08-11T08:31:23.154Z,27.81
2022-08-11T08:33:51.896Z,27.25
2022-08-11T08:36:23.531Z,27.63
2022-08-11T08:38:54.310Z,28.22
2022-08-11T08:41:36.504Z,28.46
2022-08-11T08:44:36.721Z,28.54
2022-08-11T08:46:59.906Z,27.87
2022-08-11T08:49:40.356Z,27.34
2022-08-11T08:52:27.955Z,27.33
2022-08-11T08:55:04.450Z,28.41
2022-08-11T08:57:37.072Z,29.54
2022-08-11T09:00:12.472Z,29.90
2022-08-11T09:02:43.269Z,30.07
2022-08-11T09:05:11.529Z,30.28
2022-08-11T09:07:41.491Z,30.60
2022-08-11T09:10:11.477Z,31.06
2022-08-11T09:12:42.541Z,31.49
2022-08-11T09:15:11.873Z,31.72
2022-08-11T09:17:56.338Z,32.12
2022-08-11T09:20:26.261Z,32.21
2022-08-11T09:24:06.681Z,32.21
2022-08-11T09:26:30.284Z,31.04
2022-08-11T09:28:59.523Z,29.74
2022-08-11T09:31:30.299Z,29.89
2022-08-11T09:33:58.200Z,30.24
2022-08-11T09:36:45.588Z,30.50
2022-08-11T09:39:32.988Z,29.84
2022-08-11T09:42:04.609Z,28.67
2022-08-11T09:44:48.864Z,28.29
2022-08-11T09:47:30.420Z,29.21
2022-08-11T09:50:01.725Z,29.29
2022-08-11T09:52:38.520Z,29.39
2022-08-11T09:55:11.320Z,29.99
2022-08-11T09:58:05.381Z,30.63
2022-08-11T10:00:38.020Z,30.60
2022-08-11T10:03:10.061Z,30.14
2022-08-11T10:05:57.950Z,30.11
2022-08-11T10:08:30.263Z,30.23
2022-08-11T10:10:58.470Z,30.53
2022-08-11T10:14:32.218Z,30.80
2022-08-11T10:16:46.636Z,31.11
2022-08-11T10:19:19.349Z,31.12
2022-08-11T10:22:09.912Z,31.22
2022-08-11T10:24:57.603Z,31.28
2022-08-11T10:27:29.061Z,31.60
2022-08-11T10:30:31.815Z,32.04
2022-08-11T10:33:36.475Z,31.31
2022-08-11T10:36:16.464Z,30.71
2022-08-11T10:38:46.796Z,30.84
2022-08-11T10:41:34.053Z,31.13
2022-08-11T10:44:04.141Z,32.00
2022-08-11T10:46:50.771Z,32.61
2022-08-11T10:49:20.395Z,32.67
2022-08-11T10:52:07.180Z,32.78
2022-08-11T10:54:54.545Z,32.86
2022-08-11T10:57:41.987Z,32.56
2022-08-11T11:00:29.466Z,32.23
2022-08-11T11:03:23.193Z,32.19
2022-08-11T11:06:28.757Z,32.15
2022-08-11T11:08:57.675Z,32.94
2022-08-11T11:11:50.849Z,33.54
2022-08-11T11:14:46.738Z,33.24
2022-08-11T11:17:26.538Z,32.38
2022-08-11T11:19:59.007Z,31.92
2022-08-11T11:22:40.625Z,32.08
2022-08-11T11:25:36.586Z,32.04
2022-08-11T11:28:21.839Z,31.94
2022-08-11T11:31:00.035Z,32.40
2022-08-11T11:33:35.814Z,33.20
2022-08-11T11:36:32.170Z,32.81
2022-08-11T11:39:01.667Z,32.14
2022-08-11T11:41:29.931Z,31.69
2022-08-11T11:43:58.268Z,31.15
2022-08-11T11:46:31.998Z,31.23
2022-08-11T11:49:16.748Z,31.14
2022-08-11T11:51:49.904Z,31.42
2022-08-11T11:54:21.330Z,31.60
2022-08-11T11:56:51.250Z,31.88
2022-08-11T11:59:39.360Z,32.01
2022-08-11T12:02:11.806Z,31.68
2022-08-11T12:04:44.256Z,31.75
2022-08-11T12:07:30.708Z,31.89
2022-08-11T12:09:59.236Z,31.24
2022-08-11T12:12:45.928Z,30.83
2022-08-11T12:15:13.870Z,30.30
2022-08-11T12:17:41.583Z,29.94
2022-08-11T12:20:31.722Z,29.95
2022-08-11T12:23:16.873Z,29.82
2022-08-11T12:26:25.910Z,29.77
2022-08-11T12:28:52.157Z,29.50
2022-08-11T12:31:22.904Z,29.25
2022-08-11T12:33:50.557Z,29.28
2022-08-11T12:36:20.376Z,29.62
2022-08-11T12:38:51.526Z,29.49
2022-08-11T12:41:39.793Z,29.39
2022-08-11T12:44:29.616Z,29.34
2022-08-11T12:47:01.946Z,29.45
2022-08-11T12:49:53.690Z,29.47
2022-08-11T12:52:26.435Z,29.21
2022-08-11T12:55:14.076Z,29.11
2022-08-11T12:58:05.302Z,29.13
2022-08-11T13:00:51.848Z,29.30
2022-08-11T13:03:39.838Z,29.34
2022-08-11T13:06:09.024Z,29.16
2022-08-11T13:08:39.294Z,28.96
2022-08-11T13:11:56.020Z,28.92
2022-08-11T13:14:16.319Z,28.76
2022-08-11T13:17:04.714Z,28.72
2022-08-11T13:19:34.489Z,28.72
2022-08-11T13:22:05.304Z,28.83
2022-08-11T13:24:36.566Z,28.73
2022-08-11T13:27:04.729Z,28.75
2022-08-11T13:29:32.538Z,28.75
2022-08-11T13:32:00.368Z,28.88
2022-08-11T13:34:33.344Z,28.91
2022-08-11T13:37:02.548Z,29.09
2022-08-11T13:39:32.088Z,29.08
2022-08-11T13:42:02.483Z,29.02
2022-08-11T13:44:33.434Z,29.07
2022-08-11T13:47:04.503Z,29.15
2022-08-11T13:49:39.910Z,29.17
2022-08-11T13:52:15.115Z,29.06
2022-08-11T13:54:46.301Z,29.04
2022-08-11T13:58:08.911Z,28.93
2022-08-11T14:00:13.276Z,28.89
2022-08-11T14:02:54.093Z,28.89
2022-08-11T14:05:28.547Z,28.78
2022-08-11T14:08:04.676Z,28.67
2022-08-11T14:10:35.306Z,28.72
2022-08-11T14:13:29.793Z,28.64
2022-08-11T14:16:20.733Z,28.49
2022-08-11T14:18:52.171Z,28.47
2022-08-11T14:21:42.091Z,28.58
2022-08-11T14:24:11.655Z,28.71
2022-08-11T14:26:43.522Z,28.73
2022-08-11T14:29:14.299Z,28.52
2022-08-11T14:31:51.179Z,28.39
2022-08-11T14:34:22.876Z,28.48
2022-08-11T14:37:04.205Z,28.53
2022-08-11T14:40:02.906Z,28.62
2022-08-11T14:42:50.151Z,28.71
2022-08-11T14:45:57.903Z,28.75
2022-08-11T14:48:25.302Z,28.79
2022-08-11T14:50:53.903Z,28.74
2022-08-11T14:53:24.161Z,28.73
2022-08-11T14:56:11.077Z,28.79
2022-08-11T14:58:40.454Z,28.73
2022-08-11T15:01:28.873Z,28.59
2022-08-11T15:04:34.337Z,28.52
2022-08-11T15:06:47.285Z,28.61
2022-08-11T15:09:15.844Z,28.56
2022-08-11T15:12:04.267Z,28.60
2022-08-11T15:14:55.937Z,28.53
2022-08-11T15:17:29.418Z,28.57
2022-08-11T15:20:34.443Z,28.44
2022-08-11T15:23:21.417Z,28.38
2022-08-11T15:25:59.366Z,28.51
2022-08-11T15:28:48.409Z,28.49
2022-08-11T15:31:35.732Z,28.51
2022-08-11T15:34:27.075Z,28.62
2022-08-11T15:37:18.077Z,28.54
2022-08-11T15:40:31.300Z,28.46
2022-08-11T15:43:28.467Z,28.46
2022-08-11T15:46:02.419Z,28.40
2022-08-11T15:48:57.926Z,28.35
2022-08-11T15:51:54.449Z,28.33
2022-08-11T15:54:26.900Z,28.13
2022-08-11T15:56:55.571Z,28.07
2022-08-11T15:59:44.524Z,27.94
2022-08-11T16:02:28.120Z,27.92
2022-08-11T16:04:58.440Z,27.88
2022-08-11T16:07:30.886Z,27.93
2022-08-11T16:10:07.800Z,27.98
2022-08-11T16:13:06.025Z,28.02
2022-08-11T16:16:03.939Z,28.06
2022-08-11T16:18:42.759Z,28.06
2022-08-11T16:21:33.838Z,28.05
2022-08-11T16:27:01.515Z,27.98
2022-08-11T16:27:13.187Z,27.93
2022-08-11T16:29:45.605Z,27.90
2022-08-11T16:32:23.465Z,27.82
2022-08-11T16:35:12.951Z,27.81
2022-08-11T16:38:00.536Z,27.77
2022-08-11T16:40:29.524Z,27.74
2022-08-11T16:43:16.960Z,27.68
2022-08-11T16:46:04.303Z,27.60
2022-08-11T16:48:38.476Z,27.43
2022-08-11T16:51:08.485Z,27.34
2022-08-11T16:54:01.326Z,27.30
2022-08-11T16:56:49.293Z,27.25
2022-08-11T16:59:24.525Z,27.26
2022-08-11T17:01:53.520Z,27.22
2022-08-11T17:04:54.991Z,27.18
2022-08-11T17:07:43.368Z,27.08
2022-08-11T17:10:52.657Z,27.04
2022-08-11T17:14:11.574Z,26.98
2022-08-11T17:16:41.351Z,27.04
2022-08-11T17:19:13.616Z,26.98
2022-08-11T17:22:06.145Z,26.91
2022-08-11T17:24:41.655Z,26.88
2022-08-11T17:27:10.600Z,26.88
2022-08-11T17:29:53.508Z,26.81
2022-08-11T17:33:00.813Z,26.80
2022-08-11T17:35:38.819Z,26.74
2022-08-11T17:38:16.968Z,26.67
2022-08-11T17:41:23.709Z,26.61
2022-08-11T17:44:12.408Z,26.58
2022-08-11T17:47:05.648Z,26.49
2022-08-11T17:49:39.385Z,26.46
2022-08-11T17:52:27.512Z,26.36
2022-08-11T17:55:15.812Z,26.27
2022-08-11T17:58:02.898Z,26.25
2022-08-11T18:00:31.843Z,26.11
2022-08-11T18:03:20.458Z,26.01
2022-08-11T18:05:49.325Z,25.89
2022-08-11T18:08:37.984Z,25.82
2022-08-11T18:12:10.608Z,25.71
2022-08-11T18:14:34.420Z,25.65
2022-08-11T18:17:20.319Z,25.58
2022-08-11T18:20:06.977Z,25.50
2022-08-11T18:22:56.965Z,25.03
2022-08-11T18:25:47.878Z,25.30
2022-08-11T18:28:39.767Z,25.18
2022-08-11T18:31:30.437Z,25.04
2022-08-11T18:34:20.521Z,24.99
2022-08-11T18:37:29.258Z,24.95
2022-08-11T18:40:22.630Z,24.94
2022-08-11T18:43:11.624Z,24.90
2022-08-11T18:46:06.476Z,24.84
2022-08-11T18:48:56.117Z,24.76
2022-08-11T18:51:44.280Z,24.64
2022-08-11T18:54:32.446Z,24.53
2022-08-11T18:57:25.334Z,24.41
2022-08-11T19:00:13.990Z,24.30
2022-08-11T19:03:04.683Z,24.22
2022-08-11T19:06:35.791Z,24.17
2022-08-11T19:09:10.516Z,24.10
2022-08-11T19:11:59.781Z,24.06
2022-08-11T19:14:48.152Z,23.99
2022-08-11T19:17:45.986Z,23.94
2022-08-11T19:20:43.877Z,23.84
2022-08-11T19:23:32.904Z,23.77
2022-08-11T19:26:21.866Z,23.67
2022-08-11T19:29:09.572Z,23.56
2022-08-11T19:32:16.921Z,23.44
2022-08-11T19:35:03.984Z,23.35
2022-08-11T19:37:52.536Z,23.25
2022-08-11T19:40:39.591Z,23.22
2022-08-11T19:43:26.969Z,23.16
2022-08-11T19:46:17.185Z,23.06
2022-08-11T19:49:06.211Z,22.95
2022-08-11T19:51:55.024Z,22.87
2022-08-11T19:54:46.975Z,22.82
2022-08-11T19:57:39.266Z,22.75
2022-08-11T20:00:30.610Z,22.66
2022-08-11T20:03:22.142Z,22.58
2022-08-11T20:06:09.843Z,22.52
2022-08-11T20:09:00.536Z,22.49
2022-08-11T20:11:52.262Z,22.48
2022-08-11T20:14:40.370Z,22.42
2022-08-11T20:17:29.116Z,22.33
2022-08-11T20:20:18.714Z,22.27
2022-08-11T20:23:06.502Z,22.15
2022-08-11T20:25:55.769Z,22.13
2022-08-11T20:28:52.183Z,22.08
2022-08-11T20:31:41.410Z,21.97
2022-08-11T20:34:28.622Z,21.91
2022-08-11T20:37:18.589Z,21.87
2022-08-11T20:40:05.487Z,21.86
2022-08-11T20:42:53.691Z,21.87
2022-08-11T20:45:52.045Z,21.82
2022-08-11T20:48:43.301Z,21.75
2022-08-11T20:51:38.615Z,21.64
2022-08-11T20:54:38.289Z,21.50
2022-08-11T20:58:04.009Z,21.41
2022-08-11T21:00:43.933Z,21.38
2022-08-11T21:06:44.647Z,21.31
2022-08-11T21:09:58.582Z,21.28
2022-08-11T21:12:41.354Z,21.23
2022-08-11T21:15:47.068Z,21.08
2022-08-11T21:18:39.811Z,20.97
2022-08-11T21:21:30.105Z,20.94
2022-08-11T21:24:37.274Z,20.81
2022-08-11T21:27:31.972Z,20.91
2022-08-11T21:30:19.439Z,20.87
2022-08-11T21:33:05.963Z,20.82
2022-08-11T21:35:52.483Z,20.76
2022-08-11T21:38:38.914Z,20.73
2022-08-11T21:41:26.820Z,20.63
2022-08-11T21:44:15.898Z,20.54
2022-08-11T21:47:03.181Z,20.49
2022-08-11T21:49:51.655Z,20.42
2022-08-11T21:52:41.669Z,20.36
2022-08-11T21:55:29.427Z,20.30
2022-08-11T21:58:17.164Z,20.26
2022-08-11T22:01:03.705Z,20.22
2022-08-11T22:03:50.613Z,20.18
2022-08-11T22:06:38.961Z,20.14
2022-08-11T22:09:26.151Z,20.13
2022-08-11T22:12:34.062Z,20.13
2022-08-11T22:15:18.722Z,20.07
2022-08-11T22:18:04.752Z,20.01
2022-08-11T22:20:52.272Z,19.98
2022-08-11T22:23:40.833Z,19.90
2022-08-11T22:26:28.004Z,19.88
2022-08-11T22:29:14.323Z,19.90
2022-08-11T22:32:00.629Z,19.87
2022-08-11T22:34:52.857Z,19.83
2022-08-11T22:37:41.534Z,19.72
2022-08-11T22:40:29.567Z,19.45
2022-08-11T22:43:16.194Z,19.60
2022-08-11T22:46:02.851Z,19.60
2022-08-11T22:48:49.602Z,19.64
2022-08-11T22:51:38.541Z,19.54
2022-08-11T22:54:25.985Z,19.52
2022-08-11T22:57:12.349Z,19.48
2022-08-11T22:59:58.868Z,19.39
2022-08-11T23:02:48.262Z,19.30
2022-08-11T23:05:35.482Z,19.23
2022-08-11T23:08:22.500Z,19.11
2022-08-11T23:11:09.985Z,19.03
2022-08-11T23:13:57.019Z,18.91
2022-08-11T23:16:44.040Z,18.88
2022-08-11T23:20:06.653Z,18.88
2022-08-11T23:22:49.968Z,18.86
2022-08-11T23:25:36.799Z,18.83
2022-08-11T23:28:26.170Z,18.79
2022-08-11T23:31:15.464Z,18.74
2022-08-11T23:34:03.865Z,18.78
2022-08-11T23:36:50.194Z,18.75
2022-08-11T23:39:36.569Z,18.68
2022-08-11T23:42:24.289Z,18.56
2022-08-11T23:45:10.314Z,18.41
2022-08-11T23:47:57.732Z,18.27
2022-08-11T23:50:44.239Z,18.19
2022-08-11T23:53:31.760Z,18.19
2022-08-11T23:56:21.973Z,18.15
2022-08-11T23:59:09.823Z,18.08
